createdAt,value
2022-09-11T00:01:46.499Z,97.23
2022-09-11T00:04:14.326Z,96.41
2022-09-11T00:06:43.053Z,96.88
2022-09-11T00:09:10.898Z,96.91
2022-09-11T00:11:41.556Z,96.79
2022-09-11T00:14:10.219Z,97.32
2022-09-11T00:16:41.668Z,98.01
2022-09-11T00:19:12.427Z,98.25
2022-09-11T00:21:40.854Z,98.64
2022-09-11T00:24:10.133Z,98.82
2022-09-11T00:26:38.710Z,99.47
2022-09-11T00:29:06.825Z,99.80
2022-09-11T00:31:34.853Z,99.57
2022-09-11T00:34:04.217Z,99.21
2022-09-11T00:36:32.983Z,98.33
2022-09-11T00:39:01.147Z,97.62
2022-09-11T00:41:31.769Z,96.69
2022-09-11T00:44:03.277Z,95.68
2022-09-11T00:46:35.704Z,95.72
2022-09-11T00:49:16.684Z,94.98
2022-09-11T00:51:47.828Z,94.93
2022-09-11T00:54:20.992Z,94.22
2022-09-11T00:56:50.319Z,94.17
2022-09-11T00:59:21.322Z,94.21
2022-09-11T01:01:49.225Z,94.26
2022-09-11T01:04:18.558Z,93.95
2022-09-11T01:06:46.741Z,93.73
2022-09-11T01:09:14.553Z,93.30
2022-09-11T01:11:54.943Z,94.51
2022-09-11T01:14:34.756Z,92.46
2022-09-11T01:17:16.013Z,90.80
2022-09-11T01:20:14.190Z,92.25
2022-09-11T01:23:04.874Z,90.96
2022-09-11T01:25:46.450Z,90.85
2022-09-11T01:28:17.777Z,92.21
2022-09-11T01:30:48.561Z,92.25
2022-09-11T01:33:25.096Z,92.96
2022-09-11T01:36:00.629Z,92.30
2022-09-11T01:38:36.310Z,92.04
2022-09-11T01:41:10.258Z,91.56
2022-09-11T01:43:43.396Z,93.22
2022-09-11T01:46:17.375Z,92.23
2022-09-11T01:48:48.559Z,92.89
2022-09-11T01:51:21.576Z,93.61
2022-09-11T01:53:52.242Z,92.66
2022-09-11T01:56:24.770Z,92.78
2022-09-11T01:58:58.396Z,92.93
2022-09-11T02:01:31.495Z,94.08
2022-09-11T02:04:07.087Z,94.58
2022-09-11T02:06:38.756Z,95.07
2022-09-11T02:09:10.302Z,94.70
2022-09-11T02:11:41.890Z,94.95
2022-09-11T02:14:17.915Z,95.09
2022-09-11T02:16:50.925Z,95.89
2022-09-11T02:19:20.778Z,95.74
2022-09-11T02:21:49.086Z,96.44
2022-09-11T02:24:17.676Z,97.27
2022-09-11T02:26:49.410Z,97.67
2022-09-11T02:29:18.982Z,97.98
2022-09-11T02:31:47.319Z,98.31
2022-09-11T02:34:16.187Z,98.01
2022-09-11T02:37:13.946Z,98.11
2022-09-11T02:39:55.819Z,98.18
2022-09-11T02:42:38.859Z,98.42
2022-09-11T02:45:23.899Z,97.98
2022-09-11T02:47:59.692Z,97.81
2022-09-11T02:50:34.851Z,97.74
2022-09-11T02:53:07.759Z,97.79
2022-09-11T02:55:45.810Z,98.42
2022-09-11T02:58:18.955Z,98.09
2022-09-11T03:00:48.653Z,97.28
2022-09-11T03:03:16.788Z,96.84
2022-09-11T03:05:44.804Z,97.58
2022-09-11T03:08:14.612Z,98.29
2022-09-11T03:10:42.992Z,98.69
2022-09-11T03:13:10.797Z,98.97
2022-09-11T03:15:38.648Z,99.19
2022-09-11T03:18:08.045Z,99.74
2022-09-11T03:20:35.807Z,99.75
2022-09-11T03:23:09.593Z,100.00
2022-09-11T03:25:37.457Z,100.00
2022-09-11T03:28:05.426Z,100.00
2022-09-11T03:30:34.191Z,100.00
2022-09-11T03:33:02.231Z,100.00
2022-09-11T03:35:31.375Z,100.00
2022-09-11T03:37:59.091Z,100.00
2022-09-11T03:40:27.334Z,100.00
2022-09-11T03:42:55.230Z,100.00
2022-09-11T03:45:23.023Z,100.00
2022-09-11T03:47:50.759Z,100.00
2022-09-11T03:50:18.664Z,100.00
2022-09-11T03:52:47.796Z,100.00
2022-09-11T03:55:16.498Z,100.00
2022-09-11T03:57:44.482Z,100.00
2022-09-11T04:00:13.177Z,100.00
2022-09-11T04:02:42.098Z,100.00
2022-09-11T04:05:10.602Z,100.00
2022-09-11T04:07:38.508Z,100.00
2022-09-11T04:10:08.201Z,100.00
2022-09-11T04:12:36.201Z,100.00
2022-09-11T04:15:04.075Z,98.93
2022-09-11T04:17:32.603Z,97.30
2022-09-11T04:20:00.302Z,97.17
2022-09-11T04:22:28.138Z,97.06
2022-09-11T04:24:57.393Z,97.59
2022-09-11T04:27:27.128Z,96.73
2022-09-11T04:29:54.987Z,97.26
2022-09-11T04:32:22.685Z,97.69
2022-09-11T04:34:50.582Z,98.10
2022-09-11T04:37:19.780Z,98.63
2022-09-11T04:39:50.787Z,99.34
2022-09-11T04:42:18.592Z,99.64
2022-09-11T04:44:47.974Z,99.97
2022-09-11T04:47:17.040Z,100.00
2022-09-11T04:49:46.754Z,100.00
2022-09-11T04:52:18.150Z,100.00
2022-09-11T04:54:46.410Z,100.00
2022-09-11T04:57:14.364Z,100.00
2022-09-11T04:59:42.143Z,100.00
2022-09-11T05:02:11.354Z,100.00
2022-09-11T05:04:39.113Z,100.00
2022-09-11T05:07:06.943Z,100.00
2022-09-11T05:09:35.222Z,100.00
2022-09-11T05:12:04.078Z,100.00
2022-09-11T05:14:32.659Z,100.00
2022-09-11T05:17:01.427Z,100.00
2022-09-11T05:19:30.528Z,99.95
2022-09-11T05:21:58.497Z,98.30
2022-09-11T05:24:26.269Z,98.81
2022-09-11T05:26:53.966Z,97.96
2022-09-11T05:29:23.036Z,96.85
2022-09-11T05:31:52.651Z,95.98
2022-09-11T05:34:22.150Z,96.04
2022-09-11T05:36:52.206Z,95.94
2022-09-11T05:39:20.218Z,96.91
2022-09-11T05:41:50.832Z,98.10
2022-09-11T05:44:18.674Z,96.74
2022-09-11T05:46:46.793Z,97.92
2022-09-11T05:49:14.475Z,98.60
2022-09-11T05:51:42.273Z,98.89
2022-09-11T05:54:11.632Z,99.53
2022-09-11T05:56:39.598Z,100.00
2022-09-11T05:59:14.921Z,100.00
2022-09-11T06:01:43.921Z,98.89
2022-09-11T06:04:12.325Z,98.10
2022-09-11T06:06:40.677Z,98.49
2022-09-11T06:09:08.403Z,98.90
2022-09-11T06:11:37.531Z,99.44
2022-09-11T06:14:05.226Z,99.92
2022-09-11T06:16:33.223Z,100.00
2022-09-11T06:19:01.391Z,100.00
2022-09-11T06:21:29.218Z,100.00
2022-09-11T06:23:57.083Z,100.00
2022-09-11T06:26:26.571Z,100.00
2022-09-11T06:28:55.880Z,100.00
2022-09-11T06:31:25.784Z,100.00
2022-09-11T06:33:54.021Z,100.00
2022-09-11T06:36:24.287Z,100.00
2022-09-11T06:38:55.051Z,100.00
2022-09-11T06:41:22.992Z,99.99
2022-09-11T06:43:51.040Z,98.90
2022-09-11T06:46:21.927Z,98.64
2022-09-11T06:48:50.682Z,96.35
2022-09-11T06:51:20.510Z,96.16
2022-09-11T06:53:49.095Z,95.29
2022-09-11T06:56:18.698Z,95.93
2022-09-11T06:58:47.047Z,96.01
2022-09-11T07:01:16.783Z,94.38
2022-09-11T07:03:47.110Z,92.94
2022-09-11T07:06:16.151Z,91.64
2022-09-11T07:08:44.097Z,91.13
2022-09-11T07:11:12.829Z,89.87
2022-09-11T07:13:42.008Z,91.09
2022-09-11T07:16:12.514Z,90.46
2022-09-11T07:18:41.875Z,88.25
2022-09-11T07:21:13.327Z,88.17
2022-09-11T07:23:43.296Z,88.39
2022-09-11T07:26:13.264Z,84.48
2022-09-11T07:28:41.388Z,85.79
2022-09-11T07:31:11.910Z,84.44
2022-09-11T07:33:40.493Z,83.50
2022-09-11T07:36:11.983Z,83.63
2022-09-11T07:38:40.900Z,83.36
2022-09-11T07:41:08.791Z,84.91
2022-09-11T07:43:36.902Z,84.42
2022-09-11T07:46:05.757Z,85.11
2022-09-11T07:48:34.041Z,84.71
2022-09-11T07:51:04.426Z,83.52
2022-09-11T07:53:35.347Z,82.33
2022-09-11T07:56:04.731Z,82.39
2022-09-11T07:58:35.035Z,83.20
2022-09-11T08:01:03.540Z,81.08
2022-09-11T08:03:31.397Z,80.80
2022-09-11T08:05:59.803Z,80.27
2022-09-11T08:08:29.237Z,80.86
2022-09-11T08:10:58.371Z,80.30
2022-09-11T08:13:26.111Z,80.84
2022-09-11T08:15:53.847Z,79.98
2022-09-11T08:18:21.557Z,80.81
2022-09-11T08:20:49.323Z,78.82
2022-09-11T08:23:17.417Z,77.77
2022-09-11T08:25:45.505Z,77.81
2022-09-11T08:28:15.074Z,76.37
2022-09-11T08:30:43.034Z,73.68
2022-09-11T08:33:14.047Z,71.56
2022-09-11T08:35:42.382Z,67.53
2022-09-11T08:38:10.114Z,66.83
2022-09-11T08:40:39.037Z,66.00
2022-09-11T08:43:07.232Z,65.15
2022-09-11T08:45:36.925Z,66.86
2022-09-11T08:48:09.171Z,68.72
2022-09-11T08:50:40.904Z,70.26
2022-09-11T08:53:15.219Z,70.05
2022-09-11T08:55:46.689Z,68.98
2022-09-11T08:58:24.104Z,68.54
2022-09-11T09:00:58.901Z,69.18
2022-09-11T09:03:49.077Z,69.12
2022-09-11T09:06:28.750Z,68.91
2022-09-11T09:09:04.530Z,68.70
2022-09-11T09:11:39.959Z,67.88
2022-09-11T09:14:51.839Z,66.93
2022-09-11T09:17:24.925Z,64.89
2022-09-11T09:20:00.470Z,67.01
2022-09-11T09:22:37.473Z,70.28
2022-09-11T09:25:11.946Z,67.71
2022-09-11T09:27:43.399Z,66.62
2022-09-11T09:30:16.858Z,65.46
2022-09-11T09:32:50.702Z,66.96
2022-09-11T09:35:24.487Z,69.16
2022-09-11T09:37:52.463Z,67.95
2022-09-11T09:40:20.401Z,67.71
2022-09-11T09:43:14.438Z,68.22
2022-09-11T09:46:04.467Z,69.45
2022-09-11T09:48:40.624Z,67.77
2022-09-11T09:51:13.397Z,69.08
2022-09-11T09:53:45.779Z,73.38
2022-09-11T09:56:17.459Z,72.15
2022-09-11T09:58:51.828Z,75.89
2022-09-11T10:01:44.822Z,77.13
2022-09-11T10:04:17.452Z,84.79
2022-09-11T10:06:46.991Z,79.18
2022-09-11T10:09:28.039Z,80.64
2022-09-11T10:12:02.435Z,79.81
2022-09-11T10:17:31.242Z,87.31
2022-09-11T10:20:21.836Z,81.48
2022-09-11T10:22:50.758Z,80.73
2022-09-11T10:25:21.385Z,80.42
2022-09-11T10:27:59.287Z,76.29
2022-09-11T10:30:31.387Z,74.22
2022-09-11T10:33:03.706Z,76.58
2022-09-11T10:35:35.588Z,73.18
2022-09-11T10:38:17.812Z,74.20
2022-09-11T10:40:59.379Z,74.01
2022-09-11T10:43:35.523Z,76.31
2022-09-11T10:46:05.405Z,70.42
2022-09-11T10:48:33.801Z,66.32
2022-09-11T10:51:10.788Z,68.43
2022-09-11T10:53:48.984Z,65.12
2022-09-11T10:56:17.766Z,67.87
2022-09-11T10:58:51.368Z,66.67
2022-09-11T11:01:21.220Z,63.09
2022-09-11T11:03:49.014Z,63.64
2022-09-11T11:06:32.579Z,69.17
2022-09-11T11:09:30.852Z,64.76
2022-09-11T11:15:01.343Z,69.75
2022-09-11T11:17:38.502Z,69.41
2022-09-11T11:20:22.093Z,69.50
2022-09-11T11:23:16.356Z,67.17
2022-09-11T11:25:54.159Z,69.08
2022-09-11T11:28:43.260Z,70.22
2022-09-11T11:31:23.904Z,70.03
2022-09-11T11:34:09.170Z,69.56
2022-09-11T11:36:42.619Z,70.72
2022-09-11T11:39:23.641Z,70.76
2022-09-11T11:42:01.634Z,69.36
2022-09-11T11:44:33.933Z,70.14
2022-09-11T11:47:06.700Z,69.68
2022-09-11T11:49:48.892Z,66.97
2022-09-11T11:52:38.529Z,65.17
2022-09-11T11:55:18.371Z,63.45
2022-09-11T11:57:56.752Z,64.20
2022-09-11T12:00:25.486Z,64.64
2022-09-11T12:02:59.443Z,62.32
2022-09-11T12:05:30.236Z,62.51
2022-09-11T12:07:59.023Z,61.54
2022-09-11T12:10:34.751Z,59.09
2022-09-11T12:13:07.320Z,59.20
2022-09-11T12:15:36.679Z,55.51
2022-09-11T12:18:08.316Z,55.11
2022-09-11T12:20:41.493Z,52.99
2022-09-11T12:23:46.914Z,54.24
2022-09-11T12:26:22.135Z,55.47
2022-09-11T12:28:50.755Z,56.72
2022-09-11T12:31:19.379Z,56.26
2022-09-11T12:33:57.322Z,56.20
2022-09-11T12:36:37.345Z,57.51
2022-09-11T12:39:23.968Z,59.85
2022-09-11T12:41:53.383Z,59.23
2022-09-11T12:44:54.137Z,57.79
2022-09-11T12:47:24.851Z,58.48
2022-09-11T12:49:57.132Z,58.55
2022-09-11T12:52:35.730Z,57.63
2022-09-11T12:55:22.679Z,58.57
2022-09-11T12:57:52.367Z,58.14
2022-09-11T13:00:24.447Z,58.67
2022-09-11T13:02:56.823Z,58.91
2022-09-11T13:05:28.066Z,58.44
2022-09-11T13:08:00.627Z,56.29
2022-09-11T13:10:33.408Z,53.86
2022-09-11T13:13:04.677Z,52.12
2022-09-11T13:15:37.724Z,50.80
2022-09-11T13:18:32.250Z,52.98
2022-09-11T13:21:03.364Z,51.54
2022-09-11T13:23:31.521Z,50.22
2022-09-11T13:25:59.510Z,49.02
2022-09-11T13:28:31.820Z,51.31
2022-09-11T13:31:02.088Z,49.90
2022-09-11T13:33:32.595Z,52.65
2022-09-11T13:36:03.574Z,50.55
2022-09-11T13:38:34.980Z,49.35
2022-09-11T13:41:06.982Z,49.78
2022-09-11T13:43:39.653Z,48.56
2022-09-11T13:46:12.388Z,48.39
2022-09-11T13:48:40.172Z,47.35
2022-09-11T13:51:13.504Z,47.69
2022-09-11T13:53:43.686Z,47.18
2022-09-11T13:56:21.653Z,46.27
2022-09-11T13:58:53.564Z,45.38
2022-09-11T14:01:21.580Z,45.96
2022-09-11T14:03:49.952Z,46.28
2022-09-11T14:06:20.770Z,46.19
2022-09-11T14:08:52.420Z,46.99
2022-09-11T14:11:26.014Z,47.36
2022-09-11T14:13:59.384Z,47.50
2022-09-11T14:16:31.480Z,45.84
2022-09-11T14:19:03.950Z,38.76
2022-09-11T14:21:34.559Z,34.24
2022-09-11T14:24:07.163Z,35.34
2022-09-11T14:26:42.333Z,40.93
2022-09-11T14:29:25.638Z,45.30
2022-09-11T14:31:54.879Z,48.89
2022-09-11T14:34:26.320Z,49.98
2022-09-11T14:36:57.489Z,51.17
2022-09-11T14:39:34.482Z,52.45
2022-09-11T14:42:03.173Z,52.17
2022-09-11T14:44:32.755Z,53.33
2022-09-11T14:47:00.585Z,53.18
2022-09-11T14:49:29.503Z,54.14
2022-09-11T14:51:59.677Z,54.91
2022-09-11T14:54:31.006Z,54.25
2022-09-11T14:56:59.275Z,54.38
2022-09-11T14:59:29.691Z,54.00
2022-09-11T15:01:59.521Z,54.00
2022-09-11T15:04:29.441Z,54.75
2022-09-11T15:06:57.886Z,54.25
2022-09-11T15:09:25.779Z,54.75
2022-09-11T15:11:53.706Z,55.00
2022-09-11T15:14:44.704Z,56.18
2022-09-11T15:17:14.536Z,56.98
2022-09-11T15:19:45.699Z,56.01
2022-09-11T15:22:13.528Z,57.57
2022-09-11T15:24:41.932Z,58.33
2022-09-11T15:27:11.371Z,58.49
2022-09-11T15:29:39.766Z,58.96
2022-09-11T15:32:09.284Z,58.97
2022-09-11T15:34:39.220Z,59.19
2022-09-11T15:37:07.341Z,59.15
2022-09-11T15:39:35.259Z,59.89
2022-09-11T15:42:03.065Z,58.81
2022-09-11T15:44:31.403Z,57.76
2022-09-11T15:46:59.796Z,57.54
2022-09-11T15:49:29.175Z,57.27
2022-09-11T15:51:59.579Z,57.05
2022-09-11T15:54:27.848Z,57.41
2022-09-11T15:56:56.167Z,56.68
2022-09-11T15:59:23.926Z,54.76
2022-09-11T16:01:51.917Z,55.45
2022-09-11T16:04:23.019Z,54.45
2022-09-11T16:06:51.507Z,53.36
2022-09-11T16:09:23.101Z,54.81
2022-09-11T16:11:52.194Z,54.93
2022-09-11T16:14:21.777Z,53.76
2022-09-11T16:16:49.730Z,52.79
2022-09-11T16:19:19.943Z,52.78
2022-09-11T16:21:48.778Z,52.42
2022-09-11T16:24:16.891Z,52.53
2022-09-11T16:26:46.289Z,54.39
2022-09-11T16:29:17.909Z,56.46
2022-09-11T16:31:45.859Z,57.86
2022-09-11T16:34:15.035Z,58.10
2022-09-11T16:36:42.999Z,58.76
2022-09-11T16:39:13.046Z,58.25
2022-09-11T16:41:40.887Z,58.36
2022-09-11T16:44:12.797Z,58.71
2022-09-11T16:46:42.208Z,59.39
2022-09-11T16:49:11.109Z,60.11
2022-09-11T16:51:38.940Z,61.13
2022-09-11T16:54:07.725Z,61.58
2022-09-11T16:56:35.533Z,62.25
2022-09-11T16:59:03.288Z,62.45
2022-09-11T17:01:32.394Z,62.75
2022-09-11T17:04:00.205Z,64.01
2022-09-11T17:06:29.878Z,65.32
2022-09-11T17:09:00.134Z,65.37
2022-09-11T17:11:29.685Z,65.72
2022-09-11T17:13:57.906Z,65.73
2022-09-11T17:16:28.191Z,66.39
2022-09-11T17:18:58.413Z,67.06
2022-09-11T17:21:27.619Z,67.15
2022-09-11T17:23:57.016Z,66.83
2022-09-11T17:26:25.189Z,67.31
2022-09-11T17:28:55.062Z,69.46
2022-09-11T17:31:23.535Z,69.41
2022-09-11T17:33:51.448Z,68.95
2022-09-11T17:36:22.231Z,69.33
2022-09-11T17:38:52.492Z,69.57
2022-09-11T17:41:21.857Z,69.91
2022-09-11T17:43:49.926Z,70.47
2022-09-11T17:46:19.826Z,71.67
2022-09-11T17:48:48.025Z,74.15
2022-09-11T17:51:20.115Z,75.73
2022-09-11T17:53:51.435Z,76.81
2022-09-11T17:56:20.879Z,77.77
2022-09-11T17:58:51.351Z,78.36
2022-09-11T18:01:19.972Z,78.76
2022-09-11T18:03:52.535Z,78.71
2022-09-11T18:06:25.378Z,79.77
2022-09-11T18:08:56.551Z,80.09
2022-09-11T18:11:24.877Z,80.91
2022-09-11T18:13:53.606Z,80.89
2022-09-11T18:16:21.592Z,81.44
2022-09-11T18:18:49.420Z,81.32
2022-09-11T18:21:17.371Z,81.53
2022-09-11T18:23:46.499Z,81.94
2022-09-11T18:26:23.116Z,82.29
2022-09-11T18:28:51.593Z,82.28
2022-09-11T18:31:20.058Z,83.13
2022-09-11T18:33:54.594Z,83.11
2022-09-11T18:36:23.480Z,82.77
2022-09-11T18:38:51.628Z,82.73
2022-09-11T18:41:21.572Z,83.25
2022-09-11T18:43:49.383Z,83.19
2022-09-11T18:46:17.221Z,82.76
2022-09-11T18:48:45.659Z,83.30
2022-09-11T18:51:15.177Z,83.14
2022-09-11T18:53:43.555Z,82.83
2022-09-11T18:56:12.148Z,82.81
2022-09-11T18:58:41.826Z,82.83
2022-09-11T19:01:12.082Z,82.68
2022-09-11T19:03:41.669Z,82.97
2022-09-11T19:06:11.683Z,82.54
2022-09-11T19:08:41.297Z,83.33
2022-09-11T19:11:10.834Z,84.15
2022-09-11T19:13:39.928Z,85.64
2022-09-11T19:16:09.821Z,86.16
2022-09-11T19:18:39.308Z,85.44
2022-09-11T19:21:10.256Z,86.30
2022-09-11T19:23:40.253Z,85.50
2022-09-11T19:26:12.017Z,85.18
2022-09-11T19:28:42.146Z,85.31
2022-09-11T19:31:13.142Z,84.64
2022-09-11T19:33:48.182Z,85.01
2022-09-11T19:36:18.303Z,85.59
2022-09-11T19:38:49.570Z,86.93
2022-09-11T19:41:20.394Z,87.33
2022-09-11T19:43:48.761Z,87.86
2022-09-11T19:46:19.656Z,88.32
2022-09-11T19:48:48.776Z,88.93
2022-09-11T19:51:21.404Z,89.35
2022-09-11T19:53:50.776Z,89.83
2022-09-11T19:56:19.695Z,90.41
2022-09-11T19:58:47.667Z,90.24
2022-09-11T20:01:18.476Z,90.03
2022-09-11T20:03:48.800Z,89.75
2022-09-11T20:06:18.352Z,90.17
2022-09-11T20:08:48.269Z,90.80
2022-09-11T20:11:18.890Z,90.25
2022-09-11T20:13:47.322Z,90.30
2022-09-11T20:16:20.132Z,90.50
2022-09-11T20:18:48.384Z,90.58
2022-09-11T20:21:17.519Z,91.19
2022-09-11T20:23:46.570Z,91.89
2022-09-11T20:26:17.551Z,91.87
2022-09-11T20:28:46.334Z,92.14
2022-09-11T20:31:15.368Z,92.36
2022-09-11T20:33:46.198Z,92.40
2022-09-11T20:36:14.815Z,92.86
2022-09-11T20:38:43.033Z,92.58
2022-09-11T20:41:14.871Z,92.31
2022-09-11T20:43:43.008Z,91.83
2022-09-11T20:46:11.372Z,91.73
2022-09-11T20:48:39.541Z,91.07
2022-09-11T20:51:11.039Z,90.39
2022-09-11T20:53:41.689Z,90.23
2022-09-11T20:56:12.537Z,90.54
2022-09-11T20:58:40.387Z,90.80
2022-09-11T21:01:11.362Z,90.64
2022-09-11T21:03:39.095Z,91.40
2022-09-11T21:06:09.657Z,91.23
2022-09-11T21:08:37.614Z,91.33
2022-09-11T21:11:06.908Z,92.15
2022-09-11T21:13:35.932Z,92.20
2022-09-11T21:16:06.963Z,92.80
2022-09-11T21:18:35.605Z,93.14
2022-09-11T21:21:03.561Z,93.31
2022-09-11T21:23:33.398Z,93.38
2022-09-11T21:26:01.191Z,93.75
2022-09-11T21:28:29.348Z,93.45
2022-09-11T21:31:02.021Z,93.64
2022-09-11T21:33:30.503Z,93.74
2022-09-11T21:35:58.544Z,93.98
2022-09-11T21:38:29.459Z,94.74
2022-09-11T21:41:00.789Z,95.17
2022-09-11T21:43:29.795Z,94.88
2022-09-11T21:45:57.764Z,94.55
2022-09-11T21:48:25.980Z,93.79
2022-09-11T21:50:53.906Z,94.12
2022-09-11T21:53:22.121Z,94.14
2022-09-11T21:55:49.990Z,93.76
2022-09-11T21:58:21.188Z,93.45
2022-09-11T22:00:49.936Z,92.74
2022-09-11T22:03:19.665Z,93.41
2022-09-11T22:05:52.182Z,93.57
2022-09-11T22:08:20.873Z,94.27
2022-09-11T22:10:51.473Z,94.62
2022-09-11T22:13:21.086Z,95.14
2022-09-11T22:15:51.649Z,96.26
2022-09-11T22:18:20.106Z,96.49
2022-09-11T22:20:48.058Z,96.17
2022-09-11T22:23:18.117Z,96.01
2022-09-11T22:25:47.062Z,95.88
2022-09-11T22:28:15.973Z,95.92
2022-09-11T22:30:45.523Z,95.89
2022-09-11T22:33:13.335Z,95.92
2022-09-11T22:35:41.176Z,95.82
2022-09-11T22:38:08.975Z,95.92
2022-09-11T22:40:36.944Z,96.02
2022-09-11T22:43:04.734Z,96.43
2022-09-11T22:45:32.949Z,96.29
2022-09-11T22:48:02.799Z,96.21
2022-09-11T22:50:31.001Z,96.15
2022-09-11T22:52:58.845Z,96.28
2022-09-11T22:55:26.911Z,96.32
2022-09-11T22:57:55.238Z,96.43
2022-09-11T23:00:23.161Z,96.40
2022-09-11T23:02:50.886Z,96.79
2022-09-11T23:05:38.004Z,96.67
2022-09-11T23:08:05.772Z,97.07
2022-09-11T23:10:33.612Z,97.35
2022-09-11T23:13:01.423Z,97.49
2022-09-11T23:15:29.149Z,97.61
2022-09-11T23:17:56.878Z,97.12
2022-09-11T23:20:26.325Z,97.18
2022-09-11T23:22:54.396Z,97.51
2022-09-11T23:25:22.277Z,97.28
2022-09-11T23:27:50.127Z,97.41
2022-09-11T23:30:18.117Z,97.56
2022-09-11T23:32:46.008Z,97.58
2022-09-11T23:35:14.071Z,97.63
2022-09-11T23:37:45.464Z,97.92
2022-09-11T23:40:13.535Z,98.01
2022-09-11T23:42:41.418Z,98.31
2022-09-11T23:45:12.636Z,98.09
2022-09-11T23:47:40.719Z,98.25
2022-09-11T23:50:09.538Z,98.26
2022-09-11T23:52:39.413Z,98.00
2022-09-11T23:55:09.414Z,97.83
2022-09-11T23:57:37.449Z,97.58
